»·PEaware :: N738DT KSBD-KEMT

N738DT :: KSBD-KEMT

FLIGHT INFORMATION

Flight Status: Arrived
Operator: Privately registered:
United States
More flights under this callsign
Pilot: Anonymous 26091 (26091)
Aircraft: CESSNA 172 SKYHAWK
(C172)
More flights by this aircraft type
Origin: KSBD San Bernardino Intl
United States
Destination: KEMT El Monte
United States
More flights between these airports :: More routes between these airports
Route: +
File this flight plan on PilotEdge
Remarks: CAT7
Altitude:
(Current/Filed)
0ft
Speed:
(Current/Filed)
0kts
Departed: 17-Oct-19 04:44 PM
Arrived: 17-Oct-19 06:41 PM
Distance/Time
Traveled:
40nm/1:57
Distance/Time
To Go:
Arrived

Flight Plot

Page will automatically refresh every two minutes.


Map Options




Map Legend


Flown Route
Filed Route
Departure Airport
Arrival Airport
Navaid (VOR, NDB)
Fix

Horizontal Profiles

Position Reports

Time Latitude Longitude Heading Altitude Ground
Speed
17-Oct-19 16:34 34.104837 -117.245204 52 1099ft 0kts
17-Oct-19 16:35 34.104237 -117.244876 104 1100ft 6kts
17-Oct-19 16:36 34.103459 -117.242509 109 1105ft 18kts
17-Oct-19 16:37 34.099527 -117.238569 154 1109ft 0kts
17-Oct-19 16:38 34.097979 -117.237521 149 1111ft 11kts
17-Oct-19 16:39 34.096755 -117.236169 85 1115ft 4kts
17-Oct-19 16:40 34.097489 -117.233549 45 1122ft 0kts
17-Oct-19 16:41 34.096130 -117.238268 243 1110ft 27kts
17-Oct-19 16:42 34.094232 -117.240975 195 1101ft 8kts
17-Oct-19 16:43 34.097071 -117.235117 69 1119ft 51kts
17-Oct-19 16:44 34.100721 -117.222776 71 1150ft 41kts
17-Oct-19 16:45 34.100911 -117.219007 132 1161ft 0kts
17-Oct-19 16:46 34.100795 -117.219152 216 1160ft 1kts
17-Oct-19 16:47 34.100952 -117.219692 195 1159ft 12kts
17-Oct-19 16:48 34.100263 -117.219603 192 1159ft 18kts
17-Oct-19 16:49 34.094955 -117.239790 251 1780ft 82kts
17-Oct-19 16:50 34.089672 -117.263094 279 2770ft 78kts
17-Oct-19 16:51 34.084092 -117.286699 253 3534ft 84kts
17-Oct-19 16:52 34.078471 -117.310044 254 3892ft 77kts
17-Oct-19 16:53 34.073035 -117.332961 254 3748ft 81kts
17-Oct-19 16:54 34.068168 -117.356478 256 3818ft 84kts
17-Oct-19 16:55 34.063348 -117.380190 256 3989ft 84kts
17-Oct-19 16:56 34.058769 -117.402946 256 4152ft 83kts
17-Oct-19 16:57 34.055172 -117.426472 261 4308ft 83kts
17-Oct-19 16:58 34.052753 -117.450092 247 4434ft 83kts
17-Oct-19 16:59 34.055952 -117.472457 272 4486ft 93kts
17-Oct-19 17:00 34.036906 -117.476364 171 4534ft 84kts
17-Oct-19 17:01 34.017002 -117.468086 160 4470ft 85kts
17-Oct-19 17:02 34.001607 -117.469216 288 4245ft 94kts
17-Oct-19 17:03 34.009124 -117.491351 290 4015ft 89kts
17-Oct-19 17:04 34.010503 -117.514686 270 3735ft 86kts
17-Oct-19 17:05 34.012113 -117.537048 283 3427ft 84kts
17-Oct-19 17:06 34.018091 -117.557126 291 3142ft 83kts
17-Oct-19 17:11 34.104716 -117.245515 325 1099ft 0kts
17-Oct-19 17:12 34.104716 -117.245515 325 1099ft 0kts
17-Oct-19 17:13 34.104560 -117.245466 124 1099ft 8kts
17-Oct-19 17:14 34.103629 -117.241935 109 1106ft 2kts
17-Oct-19 17:15 34.101465 -117.234568 103 1121ft 34kts
17-Oct-19 17:16 34.099791 -117.227916 136 1137ft 11kts
17-Oct-19 17:17 34.099259 -117.225434 112 1142ft 0kts
17-Oct-19 17:18 34.100783 -117.222527 68 1150ft 24kts
17-Oct-19 17:19 34.100734 -117.219691 125 1159ft 0kts
17-Oct-19 17:20 34.100734 -117.219691 125 1159ft 0kts
17-Oct-19 17:21 34.100734 -117.219691 125 1159ft 0kts
17-Oct-19 17:22 34.100734 -117.219691 125 1159ft 0kts
17-Oct-19 17:24 34.099373 -117.221023 250 1155ft 53kts
17-Oct-19 17:25 34.094550 -117.244791 261 2009ft 83kts
17-Oct-19 17:26 34.091550 -117.269411 261 3023ft 76kts
17-Oct-19 17:27 34.088545 -117.294169 261 3893ft 80kts
17-Oct-19 17:28 34.085625 -117.318315 261 4568ft 86kts
17-Oct-19 17:29 34.085407 -117.344145 278 4784ft 93kts
17-Oct-19 17:30 34.100034 -117.363780 334 5055ft 93kts
17-Oct-19 17:31 34.122814 -117.372448 347 5085ft 94kts
17-Oct-19 17:32 34.141389 -117.387240 301 5084ft 95kts
17-Oct-19 17:33 34.145752 -117.412510 269 5117ft 93kts
17-Oct-19 17:34 34.141719 -117.436942 249 5133ft 92kts
17-Oct-19 17:35 34.137271 -117.461622 265 5141ft 93kts
17-Oct-19 17:36 34.135551 -117.487612 270 5155ft 93kts
17-Oct-19 17:37 34.137321 -117.513628 284 5167ft 93kts
17-Oct-19 17:38 34.145029 -117.538189 289 5185ft 93kts
17-Oct-19 17:39 34.149679 -117.564139 275 5212ft 93kts
17-Oct-19 17:40 34.156280 -117.589483 284 5236ft 93kts
17-Oct-19 17:41 34.161849 -117.615319 290 5283ft 92kts
17-Oct-19 17:42 34.168725 -117.640694 274 5355ft 93kts
17-Oct-19 17:42 34.164027 -117.659169 211 5265ft 103kts
17-Oct-19 17:44 34.137493 -117.654441 161 4371ft 92kts
17-Oct-19 17:45 34.115912 -117.646141 169 3529ft 91kts
17-Oct-19 17:45 34.097746 -117.642951 173 2852ft 91kts
17-Oct-19 17:46 34.077345 -117.635596 159 2080ft 89kts
17-Oct-19 17:48 34.069194 -117.611203 74 1607ft 98kts
17-Oct-19 17:48 34.075671 -117.592809 70 1648ft 89kts
17-Oct-19 17:49 34.083186 -117.568855 83 1905ft 88kts
17-Oct-19 17:50 34.072704 -117.551681 146 2047ft 103kts
17-Oct-19 17:51 34.060023 -117.562606 232 1654ft 69kts
17-Oct-19 17:52 34.057042 -117.576519 265 1125ft 56kts
17-Oct-19 17:53 34.056898 -117.586700 270 930ft 23kts
17-Oct-19 17:54 34.057537 -117.589694 348 929ft 0kts
17-Oct-19 17:55 34.057983 -117.593424 270 931ft 26kts
17-Oct-19 17:56 34.104716 -117.245514 325 1098ft 0kts
17-Oct-19 17:57 34.104716 -117.245515 325 1099ft 0kts
17-Oct-19 17:58 34.104716 -117.245515 325 1099ft 0kts
17-Oct-19 17:59 34.104716 -117.245515 325 1099ft 0kts
17-Oct-19 18:00 34.104716 -117.245515 325 1099ft 0kts
17-Oct-19 18:01 34.104716 -117.245515 325 1099ft 0kts
17-Oct-19 18:02 34.104716 -117.245515 325 1099ft 0kts
17-Oct-19 18:03 34.102822 -117.240655 99 1108ft 35kts
17-Oct-19 18:04 34.100413 -117.230191 107 1132ft 47kts
17-Oct-19 18:05 34.099381 -117.225118 269 1144ft 22kts
17-Oct-19 18:06 34.101030 -117.221813 70 1152ft 31kts
17-Oct-19 18:07 34.100971 -117.219799 149 1159ft 0kts
17-Oct-19 18:08 34.096897 -117.235406 257 1675ft 76kts
17-Oct-19 18:09 34.094319 -117.259894 267 2660ft 78kts
17-Oct-19 18:10 34.095185 -117.283831 280 3544ft 80kts
17-Oct-19 18:11 34.101905 -117.306987 295 4400ft 80kts
17-Oct-19 18:12 34.112099 -117.332075 296 4716ft 120kts
17-Oct-19 18:13 34.124857 -117.363271 296 4708ft 130kts
17-Oct-19 18:14 34.138253 -117.396036 296 4708ft 131kts
17-Oct-19 18:15 34.151759 -117.429086 296 4708ft 131kts
17-Oct-19 18:16 34.164282 -117.463030 289 4708ft 131kts
17-Oct-19 18:17 34.173370 -117.498159 287 4708ft 131kts
17-Oct-19 18:18 34.181819 -117.533644 276 4959ft 114kts
17-Oct-19 18:19 34.180363 -117.569776 267 4831ft 126kts
17-Oct-19 18:20 34.177353 -117.600177 266 5570ft 109kts
17-Oct-19 18:21 34.175908 -117.633342 267 5602ft 128kts
17-Oct-19 18:22 34.174413 -117.668581 266 5601ft 130kts
17-Oct-19 18:23 34.172248 -117.703247 263 5601ft 130kts
17-Oct-19 18:24 34.169278 -117.737600 263 5601ft 130kts
17-Oct-19 18:25 34.166115 -117.772665 261 5601ft 130kts
17-Oct-19 18:26 34.161531 -117.807229 257 5601ft 130kts
17-Oct-19 18:27 34.151459 -117.840295 244 5601ft 130kts
17-Oct-19 18:28 34.139225 -117.871945 244 5286ft 131kts
17-Oct-19 18:29 34.128099 -117.903521 247 4804ft 126kts
17-Oct-19 18:30 34.117430 -117.935343 248 4116ft 126kts
17-Oct-19 18:31 34.107226 -117.965758 248 3411ft 124kts
17-Oct-19 18:32 34.097247 -117.995477 248 2736ft 123kts
17-Oct-19 18:33 34.086966 -118.026099 247 1894ft 126kts
17-Oct-19 18:34 34.076087 -118.056850 245 1245ft 121kts
17-Oct-19 18:35 34.078457 -118.047349 65 1336ft 114kts
17-Oct-19 18:36 34.093453 -118.022707 35 895ft 90kts
17-Oct-19 18:37 34.104995 -118.001884 31 1365ft 76kts
17-Oct-19 18:38 34.101564 -118.013739 218 1204ft 129kts
17-Oct-19 18:39 34.091549 -118.031686 211 500ft 74kts
17-Oct-19 18:40 34.083338 -118.036297 182 283ft 13kts
17-Oct-19 18:41 34.082605 -118.035320 28 286ft 0kts
17-Oct-19 18:42 34.082605 -118.035320 28 286ft 0kts
17-Oct-19 18:43 34.082605 -118.035320 28 286ft 0kts

Navigation Log

Ident Type
Flight plan parsing failed, navigation log unavailable